Time;durP1;ratioP1;P1;durP2;ratioP2;P2;SDS_P1;SDS_P2;PMS_P1;PMS_P2;Temp;Humidity;BMP_temperature;BMP_pressure;BME280_temperature;BME280_humidity;BME280_pressure;Samples;Min_cycle;Max_cycle;Signal;HPM_P1;HPM_P2
2022/03/15 00:00:55;;;;;;;46.25;25.60;;;;;;;1.90;100.00;161068.66;5059170;28;20045;-62
2022/03/15 00:03:22;;;;;;;34.78;24.23;;;;;;;1.85;100.00;161055.25;5058027;28;20048;-62
2022/03/15 00:05:47;;;;;;;44.67;29.70;;;;;;;1.85;100.00;161055.25;5061346;28;20024;-62
2022/03/15 00:08:13;;;;;;;35.63;24.20;;;;;;;1.84;100.00;161051.25;5057698;28;20106;-62
2022/03/15 00:10:39;;;;;;;47.90;27.30;;;;;;;1.82;100.00;161047.22;5061568;28;20028;-62
2022/03/15 00:13:06;;;;;;;36.90;24.15;;;;;;;1.82;100.00;161047.22;5058042;28;20494;-63
2022/03/15 00:15:32;;;;;;;37.35;25.65;;;;;;;1.84;100.00;161052.56;5061618;28;20032;-63
2022/03/15 00:17:58;;;;;;;32.08;22.63;;;;;;;1.90;100.00;161068.66;5058652;28;20079;-63
2022/03/15 00:20:24;;;;;;;31.85;24.38;;;;;;;1.93;100.00;161074.03;5059914;28;20024;-63
2022/03/15 00:22:52;;;;;;;37.63;23.33;;;;;;;1.96;100.00;161082.09;5059778;28;20032;-62
2022/03/15 00:25:18;;;;;;;34.67;24.50;;;;;;;1.97;100.00;161084.81;5059260;28;20481;-63
2022/03/15 00:27:45;;;;;;;38.92;26.00;;;;;;;1.98;100.00;161087.44;5061157;28;20071;-62
2022/03/15 00:30:12;;;;;;;49.75;32.08;;;;;;;2.00;100.00;161092.81;5061206;28;20375;-63
2022/03/15 00:32:37;;;;;;;46.30;29.70;;;;;;;2.01;100.00;161096.84;5058281;28;20061;-60
2022/03/15 00:35:11;;;;;;;45.03;30.30;;;;;;;2.01;100.00;161095.50;5059526;28;20025;-62
2022/03/15 00:37:37;;;;;;;37.60;25.25;;;;;;;2.00;100.00;161092.81;5058553;28;20036;-62
2022/03/15 00:40:04;;;;;;;37.70;26.63;;;;;;;1.97;100.00;161086.13;5061136;28;20021;-62
2022/03/15 00:42:29;;;;;;;46.05;28.88;;;;;;;1.96;100.00;161082.09;5066271;28;20500;-62
2022/03/15 00:44:55;;;;;;;44.33;28.90;;;;;;;1.93;100.00;161074.03;5070695;28;20035;-62
2022/03/15 00:47:20;;;;;;;43.80;30.50;;;;;;;1.94;100.00;161078.03;5068732;28;20048;-62
2022/03/15 00:49:45;;;;;;;42.85;28.60;;;;;;;1.97;100.00;161086.13;5070762;28;20075;-62
2022/03/15 00:52:11;;;;;;;44.38;31.80;;;;;;;2.01;100.00;161095.50;5069036;28;20036;-62
2022/03/15 00:54:36;;;;;;;47.58;31.40;;;;;;;2.05;100.00;161106.22;5069961;28;20028;-62
2022/03/15 00:57:02;;;;;;;47.65;31.20;;;;;;;2.06;100.00;161108.91;5068984;28;20044;-62
2022/03/15 00:59:28;;;;;;;48.97;31.55;;;;;;;2.11;100.00;161122.38;5070807;28;20079;-62
2022/03/15 01:01:53;;;;;;;48.60;32.90;;;;;;;2.00;100.00;161092.81;5068695;28;20496;-62
2022/03/15 01:04:19;;;;;;;46.47;29.02;;;;;;;2.04;100.00;161103.59;5070234;28;20488;-63
2022/03/15 01:06:44;;;;;;;41.70;29.27;;;;;;;1.99;100.00;161090.13;5068723;28;20036;-63
2022/03/15 01:09:10;;;;;;;43.22;28.05;;;;;;;1.88;100.00;161063.31;5069912;28;20024;-63
2022/03/15 01:11:36;;;;;;;38.40;26.20;;;;;;;1.88;100.00;161063.31;5069182;28;20043;-63
2022/03/15 01:14:02;;;;;;;37.92;27.33;;;;;;;1.80;100.00;161041.84;5071096;28;20407;-63
2022/03/15 01:16:27;;;;;;;46.13;29.88;;;;;;;1.73;100.00;161024.38;5072363;28;20036;-62
2022/03/15 01:18:53;;;;;;;48.35;32.88;;;;;;;1.75;100.00;161028.38;5073692;28;20033;-63
2022/03/15 01:21:19;;;;;;;39.05;26.60;;;;;;;1.78;100.00;161036.47;5072203;28;20110;-62
2022/03/15 01:23:44;;;;;;;45.25;28.45;;;;;;;1.76;100.00;161031.09;5073974;28;20048;-62
2022/03/15 01:26:10;;;;;;;40.83;26.70;;;;;;;1.65;100.00;161002.91;5071941;28;20028;-62
2022/03/15 01:28:35;;;;;;;46.85;28.63;;;;;;;1.62;100.00;160993.53;5074071;28;20380;-62
2022/03/15 01:31:00;;;;;;;43.22;27.52;;;;;;;1.58;100.00;160984.13;5073594;28;20536;-62
2022/03/15 01:33:26;;;;;;;49.10;31.10;;;;;;;1.56;100.00;160980.13;5071643;28;20048;-63
2022/03/15 01:35:52;;;;;;;47.85;31.02;;;;;;;1.58;100.00;160985.50;5073426;28;20025;-63
2022/03/15 01:38:18;;;;;;;58.88;31.98;;;;;;;1.60;100.00;160988.19;5071875;28;20060;-62
2022/03/15 01:40:44;;;;;;;46.80;31.65;;;;;;;1.58;100.00;160985.50;5073228;28;20086;-62
2022/03/15 01:43:11;;;;;;;47.10;30.08;;;;;;;1.56;100.00;160980.13;5071819;28;20047;-62
2022/03/15 01:45:37;;;;;;;43.35;30.38;;;;;;;1.61;100.00;160990.81;5073371;28;20492;-62
2022/03/15 01:48:04;;;;;;;50.50;31.88;;;;;;;1.62;100.00;160993.53;5071450;28;20119;-62
2022/03/15 01:50:30;;;;;;;48.20;32.75;;;;;;;1.66;100.00;161005.59;5073247;28;20159;-62
2022/03/15 01:52:56;;;;;;;51.08;33.63;;;;;;;1.65;100.00;161002.91;5071730;28;20127;-62
2022/03/15 01:55:21;;;;;;;56.45;33.70;;;;;;;1.74;100.00;161025.75;5072699;28;20021;-62
2022/03/15 01:57:47;;;;;;;45.60;31.85;;;;;;;1.76;100.00;161031.09;5070714;28;20122;-62
2022/03/15 02:00:14;;;;;;;48.75;31.60;;;;;;;1.78;100.00;161036.47;5072968;28;20048;-62
2022/03/15 02:02:39;;;;;;;48.97;31.55;;;;;;;1.77;100.00;161033.78;5070964;28;20496;-62
2022/03/15 02:05:05;;;;;;;55.28;35.20;;;;;;;1.83;100.00;161049.88;5072976;28;20024;-62
2022/03/15 02:07:30;;;;;;;51.00;35.10;;;;;;;1.88;100.00;161063.31;5069968;28;20044;-62
2022/03/15 02:09:56;;;;;;;71.72;40.60;;;;;;;1.93;100.00;161075.41;5072678;28;20471;-62
2022/03/15 02:12:21;;;;;;;59.05;35.75;;;;;;;1.99;100.00;161090.13;5071577;28;20045;-62
2022/03/15 02:14:47;;;;;;;50.90;32.42;;;;;;;1.99;100.00;161090.13;5072972;28;20093;-62
2022/03/15 02:17:12;;;;;;;49.05;33.08;;;;;;;2.05;100.00;161106.22;5070851;28;20040;-62
2022/03/15 02:19:38;;;;;;;49.83;34.63;;;;;;;2.08;100.00;161112.97;5073053;28;20024;-62
2022/03/15 02:22:03;;;;;;;46.55;30.35;;;;;;;2.10;100.00;161119.69;5070878;28;20393;-62
2022/03/15 02:24:29;;;;;;;51.60;32.88;;;;;;;2.14;100.00;161130.41;5072576;28;20048;-62
2022/03/15 02:26:54;;;;;;;48.90;30.55;;;;;;;2.15;100.00;161133.09;5071250;28;20091;-62
2022/03/15 02:29:21;;;;;;;48.90;32.95;;;;;;;2.08;100.00;161114.31;5072475;28;20648;-62
2022/03/15 02:31:47;;;;;;;50.05;32.28;;;;;;;2.17;100.00;161138.47;5070088;28;20538;-62
2022/03/15 02:34:13;;;;;;;48.55;32.70;;;;;;;2.12;100.00;161125.06;5072317;28;20027;-62
2022/03/15 02:36:39;;;;;;;51.25;32.65;;;;;;;2.21;100.00;161149.19;5071172;28;20486;-62
2022/03/15 02:39:04;;;;;;;50.08;33.42;;;;;;;2.26;100.00;161159.94;5071923;28;20031;-63
2022/03/15 02:41:30;;;;;;;49.78;34.67;;;;;;;2.21;100.00;161149.19;5071243;28;20047;-63
2022/03/15 02:43:58;;;;;;;56.15;37.40;;;;;;;2.31;100.00;161173.34;5072632;28;20498;-62
2022/03/15 02:46:34;;;;;;;46.92;30.50;;;;;;;2.29;100.00;161167.97;5070204;28;20027;-62
2022/03/15 02:49:00;;;;;;;52.15;32.67;;;;;;;2.31;100.00;161173.34;5072372;28;20028;-62
2022/03/15 02:51:25;;;;;;;44.47;30.02;;;;;;;2.33;100.00;161178.75;5070685;28;20062;-62
2022/03/15 02:53:52;;;;;;;47.55;29.42;;;;;;;2.29;100.00;161167.97;5071836;28;20024;-63
2022/03/15 02:56:18;;;;;;;52.55;34.90;;;;;;;2.28;100.00;161165.28;5070184;28;20510;-62
2022/03/15 02:58:44;;;;;;;52.28;34.78;;;;;;;2.31;100.00;161173.34;5072065;28;20059;-63
2022/03/15 03:01:09;;;;;;;44.42;30.38;;;;;;;2.27;100.00;161163.97;5069426;28;20044;-62
2022/03/15 03:03:35;;;;;;;46.72;33.22;;;;;;;2.29;100.00;161169.34;5072177;28;20017;-63
2022/03/15 03:06:01;;;;;;;52.53;32.45;;;;;;;2.26;100.00;161159.94;5071472;28;20542;-63
2022/03/15 03:08:27;;;;;;;50.90;34.60;;;;;;;2.28;100.00;161165.28;5070159;28;20612;-63
2022/03/15 03:10:54;;;;;;;54.58;33.22;;;;;;;2.33;100.00;161178.75;5071802;28;20412;-63
2022/03/15 03:13:25;;;;;;;57.15;35.55;;;;;;;2.33;100.00;161178.75;5070101;28;20044;-63
2022/03/15 03:15:51;;;;;;;47.20;30.77;;;;;;;2.41;100.00;161198.84;5071497;28;20026;-63
2022/03/15 03:18:16;;;;;;;49.45;31.30;;;;;;;2.33;100.00;161178.75;5069790;28;20521;-63
2022/03/15 03:20:42;;;;;;;44.47;31.80;;;;;;;2.28;100.00;161165.28;5071908;28;20090;-63
2022/03/15 03:23:07;;;;;;;44.28;33.25;;;;;;;2.28;100.00;161165.28;5069675;28;20044;-63
2022/03/15 03:25:35;;;;;;;52.72;32.03;;;;;;;2.26;100.00;161159.94;5071676;28;20103;-63
2022/03/15 03:28:01;;;;;;;46.38;34.13;;;;;;;2.25;100.00;161157.25;5069818;28;20052;-63
2022/03/15 03:30:29;;;;;;;49.80;35.20;;;;;;;2.25;100.00;161157.25;5070836;28;20051;-63
2022/03/15 03:32:54;;;;;;;48.97;32.00;;;;;;;2.22;100.00;161151.88;5069924;28;20048;-63
2022/03/15 03:35:20;;;;;;;72.75;37.10;;;;;;;2.22;100.00;161151.88;5070957;28;20070;-63
2022/03/15 03:37:45;;;;;;;55.10;34.88;;;;;;;2.24;100.00;161154.56;5069546;28;20500;-63
2022/03/15 03:40:11;;;;;;;44.22;33.50;;;;;;;2.25;100.00;161157.25;5071128;28;20028;-63
2022/03/15 03:42:36;;;;;;;53.97;34.08;;;;;;;2.29;100.00;161167.97;5069934;28;20044;-63
2022/03/15 03:45:05;;;;;;;51.42;33.53;;;;;;;2.33;100.00;161178.75;5070432;28;20369;-63
2022/03/15 03:47:30;;;;;;;;;;;;;;;2.31;100.00;161173.34;5070471;28;20149;-63
2022/03/15 03:49:56;;;;;;;55.45;34.70;;;;;;;2.34;100.00;161181.44;5071190;28;19954;-63
2022/03/15 03:52:21;;;;;;;51.13;32.42;;;;;;;2.33;100.00;161178.75;5069264;28;20079;-62
2022/03/15 03:54:47;;;;;;;49.65;33.20;;;;;;;2.38;100.00;161192.16;5071008;28;20036;-63
2022/03/15 03:57:12;;;;;;;51.67;34.70;;;;;;;2.36;100.00;161188.13;5069353;28;20044;-63
2022/03/15 03:59:37;;;;;;;64.78;37.50;;;;;;;2.36;100.00;161186.75;5069988;28;20534;-63
2022/03/15 04:02:03;;;;;;;51.58;32.03;;;;;;;2.40;100.00;161196.16;5069418;28;20037;-63
2022/03/15 04:04:29;;;;;;;45.83;32.05;;;;;;;2.42;100.00;161201.53;5071463;28;20020;-63
2022/03/15 04:06:55;;;;;;;39.00;29.92;;;;;;;2.43;100.00;161205.56;5069271;28;20462;-62
2022/03/15 04:09:20;;;;;;;61.35;35.17;;;;;;;2.37;100.00;161189.47;5071022;28;20020;-62
2022/03/15 04:11:46;;;;;;;50.38;37.00;;;;;;;2.37;100.00;161189.47;5069825;28;20655;-62
2022/03/15 04:14:11;;;;;;;55.17;37.83;;;;;;;2.35;100.00;161184.06;5070344;28;20028;-62
2022/03/15 04:16:38;;;;;;;60.92;38.10;;;;;;;2.35;100.00;161184.06;5069500;28;20090;-62
2022/03/15 04:19:04;;;;;;;55.13;36.63;;;;;;;2.42;100.00;161202.88;5070894;28;20035;-62
2022/03/15 04:21:30;;;;;;;64.53;38.50;;;;;;;2.43;100.00;161205.56;5069236;28;20082;-62
2022/03/15 04:23:55;;;;;;;51.92;37.33;;;;;;;2.42;100.00;161201.53;5070949;28;20032;-63
2022/03/15 04:26:22;;;;;;;60.03;38.95;;;;;;;2.48;100.00;161217.66;5069062;28;20029;-62
2022/03/15 04:28:47;;;;;;;65.22;36.42;;;;;;;2.50;100.00;161224.34;5070581;28;20036;-62
2022/03/15 04:31:13;;;;;;;67.03;43.00;;;;;;;2.51;100.00;161227.03;5069030;28;20051;-63
2022/03/15 04:33:39;;;;;;;59.53;37.95;;;;;;;2.50;100.00;161223.03;5071227;28;20027;-62
2022/03/15 04:36:05;;;;;;;59.10;41.45;;;;;;;2.52;100.00;161229.75;5069314;28;20017;-61
2022/03/15 04:38:30;;;;;;;63.13;39.20;;;;;;;2.49;100.00;161221.72;5070680;28;20058;-61
2022/03/15 04:40:57;;;;;;;65.85;41.47;;;;;;;2.51;100.00;161225.72;5070597;28;20117;-61
2022/03/15 04:43:23;;;;;;;61.88;39.10;;;;;;;2.54;100.00;161235.13;5068995;28;20074;-64
2022/03/15 04:45:50;;;;;;;65.20;44.95;;;;;;;2.58;100.00;161243.16;5070257;28;20017;-63
2022/03/15 04:48:17;;;;;;;59.85;38.55;;;;;;;2.60;100.00;161248.53;5070249;28;20048;-64
2022/03/15 04:50:43;;;;;;;60.28;38.88;;;;;;;2.57;100.00;161240.50;5074796;28;20027;-63
2022/03/15 04:53:08;;;;;;;63.28;42.30;;;;;;;2.56;100.00;161237.81;5072067;28;20048;-64
2022/03/15 04:55:34;;;;;;;57.03;40.55;;;;;;;2.59;100.00;161245.84;5074576;28;20017;-63
2022/03/15 04:57:59;;;;;;;57.95;38.55;;;;;;;2.60;100.00;161248.53;5073092;28;20114;-63
2022/03/15 05:00:24;;;;;;;60.63;40.15;;;;;;;2.64;100.00;161259.31;5073602;28;20040;-63
2022/03/15 05:02:50;;;;;;;67.88;43.55;;;;;;;2.65;100.00;161261.94;5072922;28;20516;-61
2022/03/15 05:05:15;;;;;;;59.92;39.60;;;;;;;2.72;100.00;161280.75;5074293;28;20035;-61
2022/03/15 05:07:41;;;;;;;76.28;45.97;;;;;;;2.78;100.00;161295.53;5072083;28;20048;-61
2022/03/15 05:12:50;;;;;;;59.17;40.72;;;;;;;2.83;100.00;161310.31;5072368;28;20047;-61
2022/03/15 05:15:16;;;;;;;56.40;38.13;;;;;;;2.83;100.00;161310.31;5072670;28;20103;-62
2022/03/15 05:17:42;;;;;;;65.00;37.95;;;;;;;2.84;100.00;161313.00;5072546;28;20117;-63
2022/03/15 05:20:10;;;;;;;60.55;38.38;;;;;;;2.85;100.00;161315.69;5073844;28;20028;-62
2022/03/15 05:22:36;;;;;;;58.17;39.45;;;;;;;2.89;100.00;161323.72;5071429;28;20040;-62
2022/03/15 05:25:02;;;;;;;57.75;40.25;;;;;;;2.90;100.00;161326.41;5072944;28;20035;-62
2022/03/15 05:27:27;;;;;;;55.30;41.28;;;;;;;2.99;100.00;161350.59;5071708;28;20037;-62
2022/03/15 05:29:53;;;;;;;59.75;40.90;;;;;;;3.00;100.00;161354.59;5073403;28;20464;-61
2022/03/15 05:32:19;;;;;;;61.85;41.83;;;;;;;2.97;100.00;161346.59;5072350;28;20410;-61
2022/03/15 05:34:44;;;;;;;53.70;39.05;;;;;;;3.00;100.00;161353.28;5073769;28;20104;-61
2022/03/15 05:37:10;;;;;;;57.60;42.13;;;;;;;2.94;100.00;161338.50;5071768;28;20040;-61
2022/03/15 05:39:35;;;;;;;46.45;33.58;;;;;;;2.94;100.00;161337.19;5073068;28;20504;-62
2022/03/15 05:42:01;;;;;;;59.00;43.13;;;;;;;2.92;100.00;161331.78;5071420;28;20052;-62
2022/03/15 05:44:26;;;;;;;63.70;39.20;;;;;;;2.93;100.00;161334.50;5073052;28;20048;-62
2022/03/15 05:46:52;;;;;;;51.70;37.92;;;;;;;2.93;100.00;161335.81;5072128;28;20036;-62
2022/03/15 05:49:18;;;;;;;53.67;38.88;;;;;;;2.94;100.00;161338.50;5073062;28;20024;-62
2022/03/15 05:51:43;;;;;;;50.55;34.95;;;;;;;2.88;100.00;161321.03;5071851;28;20440;-62
2022/03/15 05:54:09;;;;;;;63.30;41.72;;;;;;;2.93;100.00;161334.50;5073201;28;20388;-62
2022/03/15 05:56:35;;;;;;;73.18;48.90;;;;;;;2.94;100.00;161337.19;5072024;28;20036;-62
2022/03/15 05:59:00;;;;;;;58.30;43.28;;;;;;;2.97;100.00;161345.22;5072379;28;20511;-62
2022/03/15 06:01:26;;;;;;;53.67;38.80;;;;;;;3.02;100.00;161358.63;5071631;28;20040;-61
2022/03/15 06:03:53;;;;;;;58.55;39.50;;;;;;;3.05;100.00;161366.72;5063460;28;20048;-62
2022/03/15 06:06:20;;;;;;;49.53;35.38;;;;;;;3.06;100.00;161369.41;5059591;28;20518;-62
2022/03/15 06:08:45;;;;;;;54.78;37.30;;;;;;;3.07;100.00;161372.09;5062465;28;20498;-62
2022/03/15 06:11:13;;;;;;;50.38;36.55;;;;;;;3.08;100.00;161374.78;5061667;28;20017;-62
2022/03/15 06:13:38;;;;;;;54.63;36.95;;;;;;;3.15;100.00;161393.59;5061467;28;20431;-62
2022/03/15 06:16:04;;;;;;;55.88;37.45;;;;;;;3.18;100.00;161401.63;5062328;28;20024;-62
2022/03/15 06:18:29;;;;;;;56.22;41.90;;;;;;;3.23;100.00;161412.38;5061587;28;20385;-62
2022/03/15 06:20:55;;;;;;;54.83;35.33;;;;;;;3.25;100.00;161417.72;5061337;28;20024;-62
2022/03/15 06:23:22;;;;;;;52.30;35.22;;;;;;;3.29;100.00;161429.81;5062429;28;20520;-62
2022/03/15 06:25:47;;;;;;;47.35;37.15;;;;;;;3.31;100.00;161435.19;5062220;28;20067;-62
2022/03/15 06:28:12;;;;;;;61.42;39.40;;;;;;;3.32;100.00;161437.91;5061237;28;20040;-61
2022/03/15 06:30:38;;;;;;;55.80;38.55;;;;;;;3.37;100.00;161450.00;5061215;28;20537;-61
2022/03/15 06:33:03;;;;;;;52.78;35.58;;;;;;;3.41;100.00;161460.72;5060817;28;20082;-61
2022/03/15 06:35:29;;;;;;;56.45;40.85;;;;;;;3.47;100.00;161476.84;5062582;28;20345;-61
2022/03/15 06:37:55;;;;;;;48.35;36.65;;;;;;;3.55;100.00;161495.63;5059631;28;20040;-61
2022/03/15 06:40:22;;;;;;;56.53;38.13;;;;;;;3.60;100.00;161509.09;5054553;28;20066;-61
2022/03/15 06:42:47;;;;;;;52.10;39.17;;;;;;;3.62;100.00;161515.81;5053162;28;20039;-61
2022/03/15 06:45:13;;;;;;;41.53;31.73;;;;;;;3.75;100.00;161549.41;5062344;28;20024;-61
2022/03/15 06:47:39;;;;;;;41.22;32.88;;;;;;;3.78;100.00;161556.13;5059812;28;20417;-61
2022/03/15 06:50:10;;;;;;;37.80;32.08;;;;;;;3.77;100.00;161554.75;5061303;28;20395;-61
2022/03/15 06:52:36;;;;;;;45.60;32.13;;;;;;;3.81;100.00;161565.53;5061518;28;20056;-61
2022/03/15 06:55:03;;;;;;;47.72;33.67;;;;;;;3.84;100.00;161570.88;5061116;28;20385;-61
2022/03/15 06:57:30;;;;;;;44.75;32.28;;;;;;;3.94;100.00;161597.78;5059294;28;20039;-61
2022/03/15 06:59:56;;;;;;;43.55;32.33;;;;;;;4.07;100.00;161632.69;5062224;28;20044;-61
2022/03/15 07:02:22;;;;;;;43.38;30.95;;;;;;;4.07;100.00;161632.69;5059441;28;20037;-59
2022/03/15 07:04:47;;;;;;;42.70;33.13;;;;;;;4.10;100.00;161640.78;5060637;28;20057;-58
2022/03/15 07:07:13;;;;;;;39.45;32.42;;;;;;;4.21;100.00;161667.63;5066562;28;20044;-58
2022/03/15 07:09:39;;;;;;;44.78;33.58;;;;;;;4.31;100.00;161694.53;5071797;28;20059;-58
2022/03/15 07:12:05;;;;;;;37.55;30.40;;;;;;;4.25;100.00;161678.41;5057493;28;20033;-58
2022/03/15 07:14:30;;;;;;;44.47;30.55;;;;;;;4.29;100.00;161689.16;5061799;28;20028;-58
2022/03/15 07:16:56;;;;;;;39.38;31.83;;;;;;;4.26;100.00;161682.44;5056468;28;20044;-58
2022/03/15 07:19:21;;;;;;;50.38;33.80;;;;;;;4.34;100.00;161702.63;5061054;28;20021;-58
2022/03/15 07:21:46;;;;;;;46.38;35.75;;;;;;;4.40;100.00;161718.75;5058524;28;20047;-58
2022/03/15 07:24:12;;;;;;;43.75;32.55;;;;;;;4.54;100.00;161753.69;5059936;28;20016;-58
2022/03/15 07:26:37;;;;;;;42.33;32.58;;;;;;;4.63;100.00;161777.91;5059634;28;20139;-58
2022/03/15 07:29:03;;;;;;;44.75;29.63;;;;;;;4.80;100.00;161820.94;5059423;28;20013;-58
2022/03/15 07:31:29;;;;;;;42.47;30.20;;;;;;;4.95;100.00;161861.28;5063980;28;20636;-58
2022/03/15 07:33:54;;;;;;;43.58;29.90;;;;;;;5.06;100.00;161889.53;5071213;28;20103;-58
2022/03/15 07:36:21;;;;;;;42.13;30.83;;;;;;;5.16;100.00;161915.06;5071428;28;20031;-58
2022/03/15 07:38:47;;;;;;;41.20;27.92;;;;;;;5.31;100.00;161955.44;5069949;28;20090;-58
2022/03/15 07:41:12;;;;;;;36.95;29.40;;;;;;;5.43;100.00;161986.38;5070939;28;20021;-58
2022/03/15 07:43:38;;;;;;;38.80;29.35;;;;;;;5.48;100.00;161999.81;5069997;28;20040;-58
2022/03/15 07:46:03;;;;;;;35.45;26.23;;;;;;;5.53;100.00;162013.25;5070858;28;20092;-59
2022/03/15 07:48:29;;;;;;;34.88;27.27;;;;;;;5.62;100.00;162034.78;5069856;28;20043;-58
2022/03/15 07:50:54;;;;;;;36.28;23.92;;;;;;;5.64;100.00;162041.50;5070281;28;20090;-58
2022/03/15 07:53:19;;;;;;;32.45;26.42;;;;;;;5.75;100.00;162068.44;5069639;28;20048;-58
2022/03/15 07:55:45;;;;;;;40.58;27.00;;;;;;;5.86;100.00;162098.00;5071107;28;20486;-58
2022/03/15 07:58:10;;;;;;;32.58;25.35;;;;;;;5.93;100.00;162115.53;5069185;28;20069;-58
2022/03/15 08:00:36;;;;;;;30.38;23.00;;;;;;;6.05;100.00;162146.53;5066654;28;20048;-58
2022/03/15 08:03:01;;;;;;;34.45;25.85;;;;;;;6.11;100.00;162162.66;5058950;28;20049;-58
2022/03/15 08:05:28;;;;;;;30.42;23.52;;;;;;;6.17;100.00;162178.81;5060654;28;20076;-58
2022/03/15 08:07:54;;;;;;;34.20;24.30;;;;;;;6.27;100.00;162205.75;5058819;28;20052;-58
2022/03/15 08:10:19;;;;;;;29.27;22.33;;;;;;;6.35;100.00;162227.28;5060900;28;20595;-58
2022/03/15 08:12:45;;;;;;;33.65;23.42;;;;;;;6.46;100.00;162255.56;5057574;28;20037;-58
2022/03/15 08:15:10;;;;;;;43.60;22.83;;;;;;;6.57;100.00;162283.81;5065094;28;20472;-58
2022/03/15 08:17:37;;;;;;;54.50;36.90;;;;;;;6.62;100.00;162295.94;5063763;28;20056;-58
2022/03/15 08:20:04;;;;;;;29.05;22.67;;;;;;;6.76;100.00;162332.28;5049549;28;20064;-58
2022/03/15 08:22:30;;;;;;;31.52;22.65;;;;;;;6.84;100.00;162353.81;5053726;28;20035;-58
2022/03/15 08:24:56;;;;;;;37.17;22.60;;;;;;;6.92;100.00;162375.38;5073234;28;20476;-58
2022/03/15 08:27:22;;;;;;;31.52;22.10;;;;;;;6.97;100.00;162388.81;5072712;28;20045;-58
2022/03/15 08:29:47;;;;;;;29.45;23.35;;;;;;;7.07;100.00;162413.06;5074887;28;20028;-58
2022/03/15 08:32:13;;;;;;;25.15;22.10;;;;;;;7.13;100.00;162429.22;5056757;28;20029;-58
2022/03/15 08:34:38;;;;;;;27.30;19.95;;;;;;;7.25;100.00;162461.59;5034297;28;20148;-58
2022/03/15 08:37:05;;;;;;;25.38;20.92;;;;;;;7.27;100.00;162466.94;5033349;28;20024;-58
2022/03/15 08:39:30;;;;;;;30.48;19.75;;;;;;;7.27;100.00;162466.94;5033666;28;20014;-58
2022/03/15 08:41:56;;;;;;;26.50;19.98;;;;;;;7.38;100.00;162493.91;5052247;28;20036;-58
2022/03/15 08:44:22;;;;;;;27.02;20.17;;;;;;;7.37;100.00;162491.19;5052473;28;20040;-59
2022/03/15 08:46:51;;;;;;;27.95;22.23;;;;;;;7.47;100.00;162518.16;5054258;28;20055;-59
2022/03/15 08:49:18;;;;;;;33.40;22.17;;;;;;;7.54;100.00;162537.00;5052307;28;20385;-58
2022/03/15 08:51:45;;;;;;;22.65;19.73;;;;;;;7.65;100.00;162563.94;5053234;28;20473;-58
2022/03/15 08:54:10;;;;;;;26.85;20.17;;;;;;;7.62;100.00;162558.56;5059151;28;20049;-58
2022/03/15 08:56:36;;;;;;;35.42;21.27;;;;;;;7.69;100.00;162574.72;5068008;28;20024;-58
2022/03/15 08:59:02;;;;;;;22.90;19.00;;;;;;;7.74;100.00;162589.50;5068496;28;20040;-59
2022/03/15 09:01:27;;;;;;;37.08;21.17;;;;;;;7.80;100.00;162604.34;5068286;28;20127;-59
2022/03/15 09:03:53;;;;;;;29.40;18.75;;;;;;;7.84;100.00;162613.78;5072359;28;20036;-58
2022/03/15 09:06:18;;;;;;;32.33;19.25;;;;;;;7.93;100.00;162639.38;5073841;28;20017;-58
2022/03/15 09:08:45;;;;;;;25.67;19.95;;;;;;;7.93;100.00;162639.38;5072780;28;20124;-58
2022/03/15 09:11:10;;;;;;;22.38;16.77;;;;;;;8.04;100.00;162666.34;5073821;28;20024;-58
2022/03/15 09:13:36;;;;;;;23.08;20.33;;;;;;;8.15;100.00;162696.00;5067449;28;20095;-58
2022/03/15 09:16:01;;;;;;;26.15;19.15;;;;;;;8.16;100.00;162698.66;5063175;28;20016;-59
2022/03/15 09:18:27;;;;;;;23.33;18.67;;;;;;;8.24;100.00;162718.91;5061929;28;20400;-58
2022/03/15 09:20:53;;;;;;;32.08;20.63;;;;;;;8.30;100.00;162733.75;5062039;28;20480;-59
2022/03/15 09:23:19;;;;;;;33.60;20.63;;;;;;;8.44;100.00;162770.13;5061953;28;20468;-59
2022/03/15 09:25:44;;;;;;;27.45;17.52;;;;;;;8.61;100.00;162814.63;5062723;28;20021;-58
2022/03/15 09:28:12;;;;;;;26.42;17.85;;;;;;;8.76;100.00;162855.09;5060318;28;20044;-58
2022/03/15 09:30:38;;;;;;;22.05;16.27;;;;;;;8.88;100.00;162887.47;5062119;28;20029;-58
2022/03/15 09:33:03;;;;;;;27.10;15.80;;;;;;;8.89;100.00;162890.19;5060396;28;20457;-58
2022/03/15 09:35:29;;;;;;;20.55;17.67;;;;;;;8.98;100.00;162911.72;5060498;28;20048;-58
2022/03/15 09:37:54;;;;;;;25.98;16.70;;;;;;;9.02;100.00;162922.53;5062725;28;20127;-59
2022/03/15 09:40:23;;;;;;;25.27;14.35;;;;;;;9.01;100.00;162919.81;5062139;28;20495;-59
2022/03/15 09:42:50;;;;;;;30.83;17.92;;;;;;;9.11;100.00;162946.81;5061025;28;20036;-58
2022/03/15 09:45:21;;;;;;;21.48;13.95;;;;;;;9.18;100.00;162964.31;5053360;28;20388;-58
2022/03/15 09:47:54;;;;;;;25.65;15.85;;;;;;;9.25;100.00;162981.84;5051867;28;20584;-58
2022/03/15 09:50:20;;;;;;;26.98;16.90;;;;;;;9.30;100.00;162995.34;5053104;28;20085;-58
2022/03/15 09:52:47;;;;;;;22.15;15.98;;;;;;;9.42;100.00;163027.69;5052392;28;20071;-59
2022/03/15 09:55:13;;;;;;;24.58;18.60;;;;;;;9.55;100.00;163060.09;5052737;28;20130;-58
2022/03/15 09:57:39;;;;;;;21.88;14.98;;;;;;;9.61;100.00;163076.28;5060155;28;20037;-58
2022/03/15 10:00:05;;;;;;;21.23;14.63;;;;;;;9.71;100.00;163103.25;5066385;28;20045;-58
2022/03/15 10:02:32;;;;;;;19.23;14.15;;;;;;;9.77;100.00;163118.06;5063915;28;20492;-58
2022/03/15 10:04:57;;;;;;;17.52;14.25;;;;;;;9.77;100.00;163119.44;5062618;28;20105;-58
2022/03/15 10:07:22;;;;;;;26.63;13.32;;;;;;;9.76;100.00;163115.38;5061261;28;20045;-58
2022/03/15 10:09:48;;;;;;;20.10;15.13;;;;;;;9.67;100.00;163092.44;5060938;28;20024;-58
2022/03/15 10:12:14;;;;;;;28.60;18.38;;;;;;;9.78;100.00;163122.16;5051689;28;20036;-58
2022/03/15 10:14:41;;;;;;;25.38;18.70;;;;;;;9.94;100.00;163162.63;5053324;28;20028;-58
2022/03/15 10:17:06;;;;;;;20.80;15.30;;;;;;;9.98;100.00;163173.41;5070297;28;20016;-58
2022/03/15 10:19:32;;;;;;;21.00;14.52;;;;;;;10.02;100.00;163184.19;5072969;28;20376;-58
2022/03/15 10:21:58;;;;;;;22.00;13.07;;;;;;;10.12;100.00;163211.19;5072644;28;20033;-58
2022/03/15 10:24:26;;;;;;;14.32;12.23;;;;;;;10.22;100.00;163235.47;5069401;28;20040;-59
2022/03/15 10:26:56;;;;;;;18.38;13.07;;;;;;;10.15;100.00;163219.28;5068696;28;20025;-58
2022/03/15 10:29:25;;;;;;;17.30;12.98;;;;;;;10.09;100.00;163201.75;5059409;28;20063;-58
2022/03/15 10:31:51;;;;;;;23.08;13.85;;;;;;;10.07;100.00;163197.69;5060196;28;20043;-58
2022/03/15 10:34:17;;;;;;;21.15;13.10;;;;;;;10.10;100.00;163205.78;5069006;28;20027;-58
2022/03/15 10:36:44;;;;;;;19.30;13.27;;;;;;;10.16;100.00;163220.63;5071296;28;20036;-58
2022/03/15 10:39:12;;;;;;;16.00;11.77;;;;;;;10.28;100.00;163251.66;5070527;28;20020;-58
2022/03/15 10:42:02;;;;;;;19.65;13.15;;;;;;;10.43;100.00;163292.22;5070963;28;20558;-58
2022/03/15 10:44:33;;;;;;;19.60;13.13;;;;;;;10.45;100.00;163297.63;5072697;28;20052;-58
2022/03/15 10:47:17;;;;;;;23.83;14.23;;;;;;;10.37;100.00;163276.03;5070354;28;20043;-58
2022/03/15 10:49:54;;;;;;;21.40;13.93;;;;;;;10.48;100.00;163305.69;5072516;28;20028;-58
2022/03/15 10:52:36;;;;;;;22.92;13.88;;;;;;;10.64;100.00;163346.19;5070574;28;20551;-58
2022/03/15 10:55:19;;;;;;;21.05;12.07;;;;;;;10.58;100.00;163331.31;5071587;28;20029;-58
2022/03/15 10:57:58;;;;;;;15.02;12.07;;;;;;;10.49;100.00;163307.06;5070792;28;20444;-58
2022/03/15 11:00:27;;;;;;;16.42;11.35;;;;;;;10.44;100.00;163293.53;5071874;28;20071;-58
2022/03/15 11:02:53;;;;;;;23.38;11.82;;;;;;;10.60;100.00;163336.75;5070020;28;20389;-58
2022/03/15 11:05:29;;;;;;;23.67;12.80;;;;;;;10.55;100.00;163321.88;5071679;28;20017;-58
2022/03/15 11:07:55;;;;;;;21.60;13.20;;;;;;;10.71;100.00;163363.75;5070667;28;20044;-58